DLH6SA EDDF-EDDL
Flight info
| Callsign | DLH6SA |
|---|---|
| Flight time | N/A |
| Altitude | 20000 |
| Route | MARUN3W MARUN Y152 ARPEG Z850 ADEMI T854 DOMUX DOMUX1A |
| Aircraft | A21N/M-SDE2E3FGHIRWXY/LB1 |
Departure
| Time | 2026-05-04 20:32 |
|---|---|
| Airport | Frankfurt Main Airport (EDDF) |
Arrival
| Time | N/A |
|---|---|
| Airport | Düsseldorf Airport (EDDL) |
| Time | Latitude | Longitude | Altitude | Speed | Heading |
|---|---|---|---|---|---|
| 2026-05-04 20:07 | 50.03699 | 8.52970 | 370 ft | 0 kts | 341° |
| 2026-05-04 20:22 | 50.03696 | 8.52971 | 370 ft | 2 kts | 341° |
| 2026-05-04 20:22 | 50.03679 | 8.52981 | 375 ft | 3 kts | 341° |
| 2026-05-04 20:22 | 50.03660 | 8.52991 | 372 ft | 3 kts | 341° |
| 2026-05-04 20:23 | 50.03643 | 8.53001 | 373 ft | 2 kts | 341° |
| 2026-05-04 20:23 | 50.03625 | 8.53013 | 371 ft | 3 kts | 325° |
| 2026-05-04 20:23 | 50.03612 | 8.53033 | 370 ft | 3 kts | 297° |
| 2026-05-04 20:23 | 50.03607 | 8.53060 | 368 ft | 3 kts | 264° |
| 2026-05-04 20:24 | 50.03612 | 8.53089 | 366 ft | 3 kts | 246° |
| 2026-05-04 20:24 | 50.03621 | 8.53117 | 365 ft | 3 kts | 242° |
| 2026-05-04 20:24 | 50.03627 | 8.53139 | 367 ft | 1 kts | 249° |
| 2026-05-04 20:24 | 50.03628 | 8.53140 | 367 ft | 0 kts | 250° |
| 2026-05-04 20:28 | 50.03625 | 8.53130 | 368 ft | 3 kts | 249° |
| 2026-05-04 20:28 | 50.03613 | 8.53078 | 366 ft | 7 kts | 250° |
| 2026-05-04 20:28 | 50.03591 | 8.52992 | 374 ft | 10 kts | 249° |
| 2026-05-04 20:28 | 50.03561 | 8.52863 | 379 ft | 15 kts | 250° |
| 2026-05-04 20:29 | 50.03519 | 8.52702 | 386 ft | 17 kts | 255° |
| 2026-05-04 20:29 | 50.03504 | 8.52510 | 385 ft | 19 kts | 264° |
| 2026-05-04 20:29 | 50.03455 | 8.52321 | 381 ft | 20 kts | 212° |
| 2026-05-04 20:29 | 50.03398 | 8.52387 | 382 ft | 9 kts | 90° |
| 2026-05-04 20:30 | 50.03398 | 8.52500 | 384 ft | 12 kts | 89° |
| 2026-05-04 20:30 | 50.03354 | 8.52580 | 382 ft | 13 kts | 166° |
| 2026-05-04 20:30 | 50.03260 | 8.52595 | 379 ft | 14 kts | 180° |
| 2026-05-04 20:30 | 50.03240 | 8.52595 | 378 ft | 0 kts | 181° |
| 2026-05-04 20:31 | 50.03227 | 8.52594 | 378 ft | 16 kts | 181° |
| 2026-05-04 20:31 | 50.02851 | 8.52586 | 373 ft | 90 kts | 182° |
| 2026-05-04 20:31 | 50.02014 | 8.52605 | 361 ft | 149 kts | 180° |
| 2026-05-04 20:31 | 50.00846 | 8.52646 | 572 ft | 169 kts | 183° |
| 2026-05-04 20:32 | 49.99694 | 8.52624 | 1213 ft | 171 kts | 180° |
| 2026-05-04 20:32 | 49.98466 | 8.52559 | 1589 ft | 182 kts | 189° |
| 2026-05-04 20:32 | 49.97294 | 8.51767 | 1956 ft | 191 kts | 219° |
| 2026-05-04 20:32 | 49.96346 | 8.50339 | 2390 ft | 202 kts | 226° |
| 2026-05-04 20:33 | 49.95282 | 8.48687 | 2862 ft | 215 kts | 225° |
| 2026-05-04 20:33 | 49.94182 | 8.47012 | 3234 ft | 228 kts | 225° |
| 2026-05-04 20:33 | 49.93036 | 8.45279 | 3728 ft | 232 kts | 224° |
| 2026-05-04 20:33 | 49.91873 | 8.43532 | 4065 ft | 244 kts | 224° |
| 2026-05-04 20:34 | 49.90602 | 8.41628 | 4438 ft | 256 kts | 223° |
| 2026-05-04 20:34 | 49.89289 | 8.39671 | 4844 ft | 263 kts | 223° |
| 2026-05-04 20:34 | 49.88084 | 8.37535 | 5324 ft | 265 kts | 237° |
| 2026-05-04 20:34 | 49.87441 | 8.34874 | 5819 ft | 267 kts | 260° |
| 2026-05-04 20:35 | 49.87556 | 8.31998 | 6310 ft | 272 kts | 283° |
| 2026-05-04 20:35 | 49.88371 | 8.29329 | 6733 ft | 277 kts | 299° |
| 2026-05-04 20:35 | 49.89425 | 8.26902 | 6672 ft | 261 kts | 301° |
| 2026-05-04 20:35 | 49.90406 | 8.24679 | 6477 ft | 240 kts | 301° |
| 2026-05-04 20:36 | 49.91318 | 8.22574 | 6007 ft | 231 kts | 301° |
| 2026-05-04 20:36 | 49.92197 | 8.20502 | 5413 ft | 228 kts | 301° |
| 2026-05-04 20:36 | 49.93055 | 8.18449 | 4862 ft | 226 kts | 300° |
| 2026-05-04 20:36 | 49.93889 | 8.16404 | 4278 ft | 223 kts | 299° |
| 2026-05-04 20:37 | 49.94760 | 8.14436 | 3695 ft | 222 kts | 313° |
| 2026-05-04 20:37 | 49.96069 | 8.13219 | 3078 ft | 223 kts | 345° |
| 2026-05-04 20:37 | 49.97584 | 8.13059 | 2515 ft | 220 kts | 2° |
| 2026-05-04 20:37 | 49.99085 | 8.13347 | 2093 ft | 217 kts | 21° |
| 2026-05-04 20:38 | 50.00353 | 8.14656 | 2053 ft | 218 kts | 41° |
| 2026-05-04 20:38 | 50.01450 | 8.16233 | 2015 ft | 218 kts | 43° |
| 2026-05-04 20:38 | 50.02550 | 8.17857 | 2002 ft | 218 kts | 43° |
| 2026-05-04 20:38 | 50.03646 | 8.19480 | 1993 ft | 218 kts | 43° |
| 2026-05-04 20:39 | 50.04742 | 8.21104 | 1991 ft | 218 kts | 43° |
| 2026-05-04 20:39 | 50.05840 | 8.22729 | 1989 ft | 218 kts | 43° |
| 2026-05-04 20:39 | 50.06937 | 8.24354 | 1990 ft | 218 kts | 43° |
| 2026-05-04 20:39 | 50.08020 | 8.25981 | 1988 ft | 215 kts | 43° |
| 2026-05-04 20:40 | 50.09092 | 8.27604 | 1989 ft | 215 kts | 43° |
| 2026-05-04 20:40 | 50.10165 | 8.29229 | 1988 ft | 215 kts | 43° |
| 2026-05-04 20:40 | 50.11236 | 8.30852 | 1988 ft | 215 kts | 43° |
| 2026-05-04 20:40 | 50.12270 | 8.32543 | 1987 ft | 216 kts | 54° |
| 2026-05-04 20:41 | 50.12831 | 8.34686 | 1982 ft | 217 kts | 81° |
| 2026-05-04 20:41 | 50.12925 | 8.37042 | 1990 ft | 218 kts | 87° |
| 2026-05-04 20:41 | 50.12961 | 8.39403 | 1996 ft | 218 kts | 87° |
| 2026-05-04 20:41 | 50.13010 | 8.41757 | 1992 ft | 217 kts | 86° |
| 2026-05-04 20:42 | 50.13083 | 8.44091 | 2019 ft | 217 kts | 85° |
| 2026-05-04 20:42 | 50.13178 | 8.46437 | 2014 ft | 217 kts | 85° |
| 2026-05-04 20:42 | 50.13271 | 8.48792 | 2017 ft | 218 kts | 85° |
| 2026-05-04 20:42 | 50.13356 | 8.51150 | 2022 ft | 218 kts | 85° |
| 2026-05-04 20:43 | 50.13442 | 8.53503 | 2021 ft | 218 kts | 85° |
| 2026-05-04 20:43 | 50.13523 | 8.55803 | 2013 ft | 208 kts | 86° |
| 2026-05-04 20:43 | 50.13602 | 8.58050 | 2014 ft | 207 kts | 85° |
| 2026-05-04 20:43 | 50.13677 | 8.60290 | 2015 ft | 207 kts | 86° |
| 2026-05-04 20:44 | 50.13750 | 8.62505 | 2028 ft | 207 kts | 86° |
| 2026-05-04 20:44 | 50.13961 | 8.64737 | 2090 ft | 207 kts | 70° |
| 2026-05-04 20:44 | 50.14454 | 8.66849 | 2077 ft | 206 kts | 69° |
| 2026-05-04 20:44 | 50.14910 | 8.68872 | 2032 ft | 186 kts | 69° |
| 2026-05-04 20:45 | 50.15334 | 8.70758 | 2046 ft | 184 kts | 69° |
| 2026-05-04 20:45 | 50.15753 | 8.72628 | 2036 ft | 184 kts | 69° |
| 2026-05-04 20:45 | 50.16176 | 8.74512 | 2025 ft | 184 kts | 69° |
| 2026-05-04 20:45 | 50.16417 | 8.76463 | 2005 ft | 187 kts | 93° |
| 2026-05-04 20:46 | 50.15964 | 8.78273 | 1989 ft | 172 kts | 123° |
| 2026-05-04 20:46 | 50.15268 | 8.79756 | 1994 ft | 168 kts | 124° |
| 2026-05-04 20:46 | 50.14610 | 8.81210 | 2004 ft | 151 kts | 124° |
| 2026-05-04 20:46 | 50.14020 | 8.82507 | 1993 ft | 146 kts | 128° |
| 2026-05-04 20:47 | 50.13158 | 8.83312 | 2015 ft | 147 kts | 155° |
| 2026-05-04 20:47 | 50.12169 | 8.83648 | 2020 ft | 147 kts | 183° |
| 2026-05-04 20:47 | 50.11314 | 8.82919 | 2000 ft | 145 kts | 239° |
| 2026-05-04 20:47 | 50.10994 | 8.81445 | 2034 ft | 143 kts | 258° |
| 2026-05-04 20:48 | 50.10748 | 8.79915 | 2037 ft | 149 kts | 256° |
| 2026-05-04 20:48 | 50.10443 | 8.78282 | 2060 ft | 168 kts | 254° |
| 2026-05-04 20:48 | 50.10067 | 8.76487 | 2066 ft | 176 kts | 252° |
| 2026-05-04 20:48 | 50.09666 | 8.74687 | 2039 ft | 176 kts | 251° |
| 2026-05-04 20:49 | 50.09252 | 8.72926 | 2030 ft | 176 kts | 251° |
| 2026-05-04 20:49 | 50.08813 | 8.71081 | 2035 ft | 186 kts | 250° |
| 2026-05-04 20:49 | 50.08357 | 8.69169 | 2032 ft | 186 kts | 250° |
| 2026-05-04 20:49 | 50.07913 | 8.67311 | 2029 ft | 186 kts | 250° |
| 2026-05-04 20:50 | 50.07463 | 8.65424 | 2025 ft | 186 kts | 250° |
| 2026-05-04 20:50 | 50.07012 | 8.63537 | 1887 ft | 185 kts | 251° |
| 2026-05-04 20:50 | 50.06572 | 8.61699 | 1638 ft | 171 kts | 251° |
| 2026-05-04 20:50 | 50.06186 | 8.60085 | 1441 ft | 144 kts | 251° |
| 2026-05-04 20:51 | 50.05843 | 8.58648 | 1223 ft | 140 kts | 251° |
| 2026-05-04 20:51 | 50.05506 | 8.57237 | 1004 ft | 138 kts | 251° |
| 2026-05-04 20:51 | 50.05181 | 8.55839 | 752 ft | 136 kts | 251° |
| 2026-05-04 20:51 | 50.04842 | 8.54462 | 583 ft | 136 kts | 250° |
| 2026-05-04 20:52 | 50.04514 | 8.53080 | 418 ft | 136 kts | 250° |